createdAt,value
2023-03-06T00:01:33.965Z,3.55
2023-03-06T00:04:08.286Z,3.52
2023-03-06T00:06:40.675Z,3.48
2023-03-06T00:09:13.201Z,3.47
2023-03-06T00:11:45.603Z,3.46
2023-03-06T00:14:18.067Z,3.48
2023-03-06T00:16:50.441Z,3.51
2023-03-06T00:19:22.983Z,3.51
2023-03-06T00:21:55.299Z,3.53
2023-03-06T00:24:27.640Z,3.56
2023-03-06T00:27:00.138Z,3.60
2023-03-06T00:29:32.437Z,3.62
2023-03-06T00:32:05.050Z,3.64
2023-03-06T00:34:37.958Z,3.66
2023-03-06T00:37:10.268Z,3.69
2023-03-06T00:39:42.589Z,3.69
2023-03-06T00:42:15.248Z,3.68
2023-03-06T00:44:48.185Z,3.71
2023-03-06T00:47:20.429Z,3.71
2023-03-06T00:49:52.861Z,3.69
2023-03-06T00:52:25.126Z,3.63
2023-03-06T00:54:57.514Z,3.64
2023-03-06T00:57:29.887Z,3.61
2023-03-06T01:00:02.201Z,3.59
2023-03-06T01:02:34.664Z,3.57
2023-03-06T01:05:08.244Z,3.54
2023-03-06T01:07:40.704Z,3.49
2023-03-06T01:10:15.072Z,3.47
2023-03-06T01:12:48.079Z,3.45
2023-03-06T01:15:20.941Z,3.45
2023-03-06T01:17:55.182Z,3.42
2023-03-06T01:20:28.564Z,3.38
2023-03-06T01:23:01.272Z,3.36
2023-03-06T01:25:33.752Z,3.33
2023-03-06T01:28:06.329Z,3.32
2023-03-06T01:30:38.594Z,3.28
2023-03-06T01:33:10.914Z,3.26
2023-03-06T01:35:43.829Z,3.23
2023-03-06T01:38:17.160Z,3.19
2023-03-06T01:40:49.489Z,3.16
2023-03-06T01:43:31.814Z,3.12
2023-03-06T01:46:38.894Z,3.15
2023-03-06T01:49:16.951Z,3.13
2023-03-06T01:51:54.369Z,3.12
2023-03-06T01:54:30.895Z,3.12
2023-03-06T01:57:06.940Z,3.08
2023-03-06T01:59:41.867Z,3.05
2023-03-06T02:02:15.995Z,3.00
2023-03-06T02:04:49.963Z,2.96
2023-03-06T02:07:24.183Z,2.94
2023-03-06T02:09:56.761Z,2.92
2023-03-06T02:12:29.777Z,2.92
2023-03-06T02:15:02.384Z,2.95
2023-03-06T02:17:37.236Z,2.94
2023-03-06T02:20:17.536Z,2.93
2023-03-06T02:22:55.584Z,2.93
2023-03-06T02:25:40.189Z,2.94
2023-03-06T02:28:15.638Z,2.96
2023-03-06T02:30:50.896Z,2.98
2023-03-06T02:33:27.070Z,3.02
2023-03-06T02:36:01.639Z,3.04
2023-03-06T02:38:38.828Z,3.02
2023-03-06T02:41:12.002Z,2.99
2023-03-06T02:43:47.253Z,2.97
2023-03-06T02:46:19.832Z,2.97
2023-03-06T02:48:52.254Z,2.99
2023-03-06T02:51:24.768Z,3.01
2023-03-06T02:53:57.256Z,3.05
2023-03-06T02:56:29.490Z,3.08
2023-03-06T02:59:01.867Z,3.09
2023-03-06T03:01:34.196Z,3.11
2023-03-06T03:04:06.984Z,3.12
2023-03-06T03:06:39.370Z,3.11
2023-03-06T03:09:11.736Z,3.07
2023-03-06T03:11:44.081Z,3.03
2023-03-06T03:14:16.793Z,3.02
2023-03-06T03:16:49.087Z,2.98
2023-03-06T03:19:21.466Z,2.94
2023-03-06T03:21:53.881Z,2.93
2023-03-06T03:24:26.565Z,2.90
2023-03-06T03:26:59.046Z,2.84
2023-03-06T03:29:31.402Z,2.77
2023-03-06T03:32:03.837Z,2.66
2023-03-06T03:34:36.314Z,2.54
2023-03-06T03:37:09.311Z,2.51
2023-03-06T03:39:41.610Z,2.53
2023-03-06T03:42:14.009Z,2.53
2023-03-06T03:44:46.529Z,2.49
2023-03-06T03:47:19.020Z,2.52
2023-03-06T03:49:51.332Z,2.53
2023-03-06T03:52:23.594Z,2.51
2023-03-06T03:54:56.162Z,2.52
2023-03-06T03:57:28.655Z,2.49
2023-03-06T04:00:01.064Z,2.49
2023-03-06T04:02:33.361Z,2.51
2023-03-06T04:05:06.349Z,2.52
2023-03-06T04:07:38.794Z,2.56
2023-03-06T04:10:14.298Z,2.56
2023-03-06T04:12:46.530Z,2.52
2023-03-06T04:15:18.791Z,2.51
2023-03-06T04:17:51.099Z,2.52
2023-03-06T04:20:23.841Z,2.51
2023-03-06T04:22:56.260Z,2.49
2023-03-06T04:25:28.665Z,2.49
2023-03-06T04:28:01.106Z,2.48
2023-03-06T04:30:34.248Z,2.47
2023-03-06T04:33:07.129Z,2.47
2023-03-06T04:35:39.709Z,2.48
2023-03-06T04:38:13.714Z,2.50
2023-03-06T04:40:46.358Z,2.51
2023-03-06T04:43:19.060Z,2.48
2023-03-06T04:45:51.541Z,2.45
2023-03-06T04:48:23.908Z,2.42
2023-03-06T04:50:56.248Z,2.40
2023-03-06T04:53:28.696Z,2.37
2023-03-06T04:56:01.091Z,2.31
2023-03-06T04:58:33.551Z,2.27
2023-03-06T05:01:06.092Z,2.27
2023-03-06T05:03:38.744Z,2.28
2023-03-06T05:06:11.571Z,2.28
2023-03-06T05:08:43.972Z,2.26
2023-03-06T05:11:16.536Z,2.22
2023-03-06T05:13:49.484Z,2.20
2023-03-06T05:16:21.822Z,2.19
2023-03-06T05:18:54.165Z,2.18
2023-03-06T05:21:26.697Z,2.15
2023-03-06T05:23:59.085Z,2.13
2023-03-06T05:26:31.604Z,2.10
2023-03-06T05:29:04.079Z,2.06
2023-03-06T05:31:36.521Z,2.04
2023-03-06T05:34:08.920Z,2.06
2023-03-06T05:36:41.289Z,2.12
2023-03-06T05:39:13.859Z,2.15
2023-03-06T05:41:46.129Z,2.11
2023-03-06T05:44:18.600Z,2.09
2023-03-06T05:46:52.051Z,2.17
2023-03-06T05:49:24.540Z,2.37
2023-03-06T05:51:56.871Z,2.57
2023-03-06T05:54:29.149Z,2.63
2023-03-06T05:57:01.503Z,2.60
2023-03-06T05:59:34.474Z,2.75
2023-03-06T06:02:07.026Z,2.88
2023-03-06T06:04:39.435Z,2.90
2023-03-06T06:07:16.406Z,2.84
2023-03-06T06:09:48.798Z,2.92
2023-03-06T06:12:21.281Z,3.00
2023-03-06T06:14:53.603Z,3.09
2023-03-06T06:17:25.981Z,3.19
2023-03-06T06:19:58.286Z,3.18
2023-03-06T06:22:30.661Z,3.22
2023-03-06T06:25:02.986Z,3.32
2023-03-06T06:27:35.460Z,3.40
2023-03-06T06:30:10.024Z,3.41
2023-03-06T06:32:42.347Z,3.51
2023-03-06T06:35:14.741Z,3.49
2023-03-06T06:37:47.076Z,3.49
2023-03-06T06:40:21.145Z,3.59
2023-03-06T06:42:55.410Z,3.88
2023-03-06T06:45:28.771Z,4.26
2023-03-06T06:48:01.173Z,4.83
2023-03-06T06:50:33.501Z,5.44
2023-03-06T06:53:05.893Z,5.97
2023-03-06T06:55:39.083Z,6.47
2023-03-06T06:58:11.635Z,6.74
2023-03-06T07:00:44.219Z,6.72
2023-03-06T07:03:16.684Z,6.50
2023-03-06T07:05:55.064Z,6.41
2023-03-06T07:08:27.952Z,6.31
2023-03-06T07:11:01.342Z,6.18
2023-03-06T07:13:33.582Z,6.12
2023-03-06T07:16:06.612Z,6.11
2023-03-06T07:18:38.873Z,6.10
2023-03-06T07:21:11.755Z,6.09
2023-03-06T07:23:44.369Z,6.05
2023-03-06T07:26:16.825Z,5.93
2023-03-06T07:28:53.194Z,5.86
2023-03-06T07:31:27.655Z,5.86
2023-03-06T07:34:00.198Z,5.84
2023-03-06T07:36:33.349Z,5.75
2023-03-06T07:39:05.724Z,5.65
2023-03-06T07:41:38.218Z,5.56
2023-03-06T07:44:10.775Z,5.43
2023-03-06T07:46:43.113Z,5.31
2023-03-06T07:49:15.554Z,5.15
2023-03-06T07:51:47.914Z,5.10
2023-03-06T07:54:20.270Z,5.13
2023-03-06T07:56:55.377Z,5.10
2023-03-06T07:59:27.969Z,5.14
2023-03-06T08:02:00.967Z,5.17
2023-03-06T08:04:34.229Z,5.22
2023-03-06T08:07:06.594Z,5.25
2023-03-06T08:09:39.151Z,5.28
2023-03-06T08:12:12.107Z,5.32
2023-03-06T08:14:44.479Z,5.30
2023-03-06T08:17:16.804Z,5.27
2023-03-06T08:19:49.232Z,5.28
2023-03-06T08:22:21.694Z,5.33
2023-03-06T08:24:57.717Z,5.41
2023-03-06T08:27:28.779Z,5.53
2023-03-06T08:30:01.164Z,5.60
2023-03-06T08:32:35.711Z,5.72
2023-03-06T08:35:09.388Z,5.81
2023-03-06T08:37:41.730Z,5.88
2023-03-06T08:40:15.977Z,5.93
2023-03-06T08:42:50.580Z,5.98
2023-03-06T08:45:23.056Z,5.95
2023-03-06T08:47:55.447Z,5.91
2023-03-06T08:50:27.821Z,5.98
2023-03-06T08:53:00.757Z,6.02
2023-03-06T08:55:33.242Z,6.07
2023-03-06T08:58:05.533Z,6.11
2023-03-06T09:00:38.496Z,6.14
2023-03-06T09:03:11.515Z,6.18
2023-03-06T09:05:43.873Z,6.17
2023-03-06T09:08:16.751Z,6.15
2023-03-06T09:10:50.458Z,6.19
2023-03-06T09:13:23.281Z,6.25
2023-03-06T09:15:55.678Z,6.28
2023-03-06T09:18:30.311Z,6.35
2023-03-06T09:21:04.146Z,6.47
2023-03-06T09:23:39.641Z,6.58
2023-03-06T09:26:13.482Z,6.66
2023-03-06T09:28:45.966Z,6.65
2023-03-06T09:31:20.668Z,6.54
2023-03-06T09:33:53.003Z,6.46
2023-03-06T09:36:26.006Z,6.44
2023-03-06T09:38:58.483Z,6.50
2023-03-06T09:41:34.358Z,6.56
2023-03-06T09:44:09.341Z,6.57
2023-03-06T09:47:01.779Z,6.63
2023-03-06T09:49:43.540Z,6.74
2023-03-06T09:52:31.476Z,6.78
2023-03-06T09:55:12.707Z,6.76
2023-03-06T09:57:56.034Z,6.71
2023-03-06T10:00:33.644Z,6.74
2023-03-06T10:03:19.421Z,6.78
2023-03-06T10:05:56.433Z,6.83
2023-03-06T10:08:36.853Z,6.87
2023-03-06T10:11:12.860Z,6.95
2023-03-06T10:13:46.131Z,7.05
2023-03-06T10:16:30.638Z,7.07
2023-03-06T10:19:05.321Z,7.10
2023-03-06T10:21:46.882Z,7.10
2023-03-06T10:24:33.170Z,7.12
2023-03-06T10:27:16.914Z,7.15
2023-03-06T10:30:03.173Z,7.23
2023-03-06T10:32:49.158Z,7.31
2023-03-06T10:35:30.813Z,7.36
2023-03-06T10:38:19.693Z,7.48
2023-03-06T10:41:05.067Z,7.61
2023-03-06T10:43:38.630Z,7.77
2023-03-06T10:46:12.583Z,7.96
2023-03-06T10:48:58.095Z,8.23
2023-03-06T10:51:31.903Z,8.56
2023-03-06T10:54:19.456Z,8.90
2023-03-06T10:56:51.853Z,9.20
2023-03-06T10:59:28.393Z,9.42
2023-03-06T11:02:21.759Z,9.65
2023-03-06T11:04:57.020Z,9.73
2023-03-06T11:07:31.013Z,9.70
2023-03-06T11:10:08.972Z,9.71
2023-03-06T11:12:43.518Z,9.75
2023-03-06T11:15:25.086Z,9.75
2023-03-06T11:18:01.401Z,9.80
2023-03-06T11:20:50.868Z,9.87
2023-03-06T11:23:31.466Z,9.93
2023-03-06T11:26:17.753Z,9.99
2023-03-06T11:28:50.003Z,10.07
2023-03-06T11:31:26.018Z,10.10
2023-03-06T11:34:06.275Z,10.12
2023-03-06T11:36:44.371Z,10.10
2023-03-06T11:39:25.022Z,9.91
2023-03-06T11:42:06.764Z,9.83
2023-03-06T11:44:54.389Z,9.84
2023-03-06T11:47:30.781Z,9.86
2023-03-06T11:50:15.473Z,9.81
2023-03-06T11:52:53.027Z,9.73
2023-03-06T11:55:37.759Z,9.74
2023-03-06T11:58:32.889Z,9.68
2023-03-06T12:01:10.678Z,9.58
2023-03-06T12:04:04.576Z,9.56
2023-03-06T12:06:48.175Z,9.59
2023-03-06T12:09:30.021Z,9.55
2023-03-06T12:12:19.975Z,9.59
2023-03-06T12:15:27.085Z,9.55
2023-03-06T12:18:23.764Z,9.48
2023-03-06T12:21:05.827Z,9.41
2023-03-06T12:24:03.747Z,9.38
2023-03-06T12:26:56.164Z,9.37
2023-03-06T12:29:50.127Z,9.33
2023-03-06T12:32:35.361Z,9.31
2023-03-06T12:35:23.724Z,9.34
2023-03-06T12:38:08.340Z,9.40
2023-03-06T12:40:57.257Z,9.49
2023-03-06T12:44:05.763Z,9.57
2023-03-06T12:46:42.954Z,9.62
2023-03-06T12:49:31.545Z,9.64
2023-03-06T12:52:09.846Z,9.68
2023-03-06T12:54:44.602Z,9.69
2023-03-06T12:57:17.964Z,9.70
2023-03-06T12:59:52.025Z,9.70
2023-03-06T13:02:47.540Z,9.65
2023-03-06T13:05:55.066Z,9.57
2023-03-06T13:08:37.858Z,9.56
2023-03-06T13:11:29.531Z,9.64
2023-03-06T13:14:01.917Z,9.76
2023-03-06T13:16:35.930Z,9.84
2023-03-06T13:19:19.576Z,9.89
2023-03-06T13:22:14.568Z,9.92
2023-03-06T13:24:47.536Z,9.97
2023-03-06T13:28:03.409Z,10.01
2023-03-06T13:30:47.331Z,10.06
2023-03-06T13:33:55.891Z,10.03
2023-03-06T13:36:31.194Z,9.99
2023-03-06T13:39:09.832Z,9.95
2023-03-06T13:41:54.575Z,9.94
2023-03-06T13:44:46.114Z,9.89
2023-03-06T13:48:09.733Z,9.83
2023-03-06T13:50:43.655Z,9.81
2023-03-06T13:53:57.357Z,9.82
2023-03-06T13:56:56.828Z,9.84
2023-03-06T13:59:54.399Z,9.81
2023-03-06T14:02:54.934Z,9.77
2023-03-06T14:05:35.674Z,9.71
2023-03-06T14:08:14.590Z,9.71
2023-03-06T14:10:48.586Z,9.69
2023-03-06T14:13:32.348Z,9.67
2023-03-06T14:16:21.787Z,9.66
2023-03-06T14:18:56.611Z,9.63
2023-03-06T14:21:33.743Z,9.61
2023-03-06T14:24:07.376Z,9.61
2023-03-06T14:26:47.814Z,9.60
2023-03-06T14:29:25.327Z,9.59
2023-03-06T14:31:59.137Z,9.59
2023-03-06T14:34:36.662Z,9.61
2023-03-06T14:37:20.672Z,9.63
2023-03-06T14:39:55.404Z,9.66
2023-03-06T14:42:29.637Z,9.66
2023-03-06T14:45:16.832Z,9.68
2023-03-06T14:47:52.940Z,9.71
2023-03-06T14:50:27.927Z,9.75
2023-03-06T14:53:04.437Z,9.78
2023-03-06T14:55:38.233Z,9.79
2023-03-06T14:58:17.283Z,9.78
2023-03-06T15:00:56.701Z,9.77
2023-03-06T15:03:42.799Z,9.80
2023-03-06T15:06:19.645Z,9.79
2023-03-06T15:08:59.934Z,9.76
2023-03-06T15:11:59.507Z,9.74
2023-03-06T15:14:35.231Z,9.72
2023-03-06T15:17:34.003Z,9.72
2023-03-06T15:20:09.908Z,9.67
2023-03-06T15:22:41.768Z,9.68
2023-03-06T15:25:23.131Z,9.65
2023-03-06T15:27:57.374Z,9.65
2023-03-06T15:30:33.266Z,9.64
2023-03-06T15:33:23.463Z,9.62
2023-03-06T15:35:58.384Z,9.60
2023-03-06T15:38:36.756Z,9.60
2023-03-06T15:41:21.637Z,9.60
2023-03-06T15:43:54.112Z,9.57
2023-03-06T15:46:26.367Z,9.58
2023-03-06T15:49:03.254Z,9.58
2023-03-06T15:51:35.855Z,9.57
2023-03-06T15:54:12.266Z,9.57
2023-03-06T15:56:47.543Z,9.54
2023-03-06T15:59:25.554Z,9.54
2023-03-06T16:01:58.640Z,9.51
2023-03-06T16:04:30.974Z,9.49
2023-03-06T16:07:03.309Z,9.46
2023-03-06T16:09:35.650Z,9.42
2023-03-06T16:12:13.329Z,9.39
2023-03-06T16:14:45.917Z,9.35
2023-03-06T16:17:18.638Z,9.30
2023-03-06T16:19:51.108Z,9.25
2023-03-06T16:22:23.569Z,9.20
2023-03-06T16:24:56.137Z,9.13
2023-03-06T16:27:29.084Z,9.10
2023-03-06T16:30:01.480Z,9.05
2023-03-06T16:32:34.945Z,9.02
2023-03-06T16:35:08.083Z,8.95
2023-03-06T16:37:40.467Z,8.88
2023-03-06T16:40:22.306Z,8.83
2023-03-06T16:42:55.341Z,8.79
2023-03-06T16:45:27.873Z,8.72
2023-03-06T16:48:00.494Z,8.69
2023-03-06T16:50:34.908Z,8.63
2023-03-06T16:53:07.371Z,8.55
2023-03-06T16:55:39.768Z,8.51
2023-03-06T16:58:15.116Z,8.47
2023-03-06T17:00:47.568Z,8.43
2023-03-06T17:03:20.540Z,8.41
2023-03-06T17:05:52.884Z,8.35
2023-03-06T17:08:25.163Z,8.33
2023-03-06T17:10:59.252Z,8.28
2023-03-06T17:13:31.712Z,8.22
2023-03-06T17:16:05.347Z,8.16
2023-03-06T17:18:37.693Z,8.12
2023-03-06T17:21:10.653Z,8.05
2023-03-06T17:23:43.085Z,8.00
2023-03-06T17:26:19.079Z,7.96
2023-03-06T17:28:51.910Z,7.92
2023-03-06T17:31:26.755Z,7.92
2023-03-06T17:34:00.777Z,7.90
2023-03-06T17:36:33.678Z,7.88
2023-03-06T17:39:06.719Z,7.86
2023-03-06T17:41:39.064Z,7.82
2023-03-06T17:44:12.225Z,7.79
2023-03-06T17:46:44.598Z,7.76
2023-03-06T17:49:19.568Z,7.71
2023-03-06T17:51:52.102Z,7.71
2023-03-06T17:54:26.175Z,7.68
2023-03-06T17:57:01.218Z,7.65
2023-03-06T17:59:35.206Z,7.61
2023-03-06T18:02:07.946Z,7.55
2023-03-06T18:04:41.349Z,7.50
2023-03-06T18:07:14.059Z,7.47
2023-03-06T18:09:49.297Z,7.44
2023-03-06T18:12:21.865Z,7.41
2023-03-06T18:14:54.432Z,7.38
2023-03-06T18:17:26.766Z,7.34
2023-03-06T18:19:59.258Z,7.32
2023-03-06T18:22:31.676Z,7.28
2023-03-06T18:25:04.219Z,7.23
2023-03-06T18:27:37.375Z,7.19
2023-03-06T18:30:11.899Z,7.13
2023-03-06T18:32:44.317Z,7.05
2023-03-06T18:35:16.661Z,6.98
2023-03-06T18:37:49.038Z,6.94
2023-03-06T18:40:24.523Z,6.90
2023-03-06T18:42:57.236Z,6.86
2023-03-06T18:45:29.825Z,6.84
2023-03-06T18:48:05.028Z,6.81
2023-03-06T18:50:39.203Z,6.81
2023-03-06T18:53:11.523Z,6.78
2023-03-06T18:55:49.777Z,6.74
2023-03-06T18:58:22.794Z,6.71
2023-03-06T19:00:55.652Z,6.68
2023-03-06T19:03:29.329Z,6.60
2023-03-06T19:06:05.194Z,6.57
2023-03-06T19:08:36.356Z,6.51
2023-03-06T19:11:10.874Z,6.43
2023-03-06T19:13:43.422Z,6.37
2023-03-06T19:16:22.718Z,6.33
2023-03-06T19:18:55.823Z,6.30
2023-03-06T19:21:29.406Z,6.29
2023-03-06T19:24:04.715Z,6.26
2023-03-06T19:26:36.980Z,6.23
2023-03-06T19:29:09.373Z,6.19
2023-03-06T19:31:41.720Z,6.18
2023-03-06T19:34:13.964Z,6.18
2023-03-06T19:36:46.365Z,6.14
2023-03-06T19:39:18.597Z,6.07
2023-03-06T19:41:51.388Z,6.10
2023-03-06T19:44:24.355Z,6.09
2023-03-06T19:46:56.560Z,6.08
2023-03-06T19:49:28.826Z,6.05
2023-03-06T19:52:01.278Z,6.02
2023-03-06T19:54:33.654Z,6.02
2023-03-06T19:57:06.303Z,5.97
2023-03-06T19:59:38.834Z,6.00
2023-03-06T20:02:12.908Z,6.03
2023-03-06T20:04:45.244Z,6.04
2023-03-06T20:07:17.571Z,6.03
2023-03-06T20:09:50.270Z,6.03
2023-03-06T20:12:22.619Z,6.02
2023-03-06T20:14:55.190Z,6.02
2023-03-06T20:17:27.574Z,6.04
2023-03-06T20:20:00.218Z,6.06
2023-03-06T20:22:32.558Z,6.09
2023-03-06T20:25:05.398Z,6.12
2023-03-06T20:27:38.119Z,6.15
2023-03-06T20:30:13.181Z,6.16
2023-03-06T20:32:45.415Z,6.16
2023-03-06T20:35:18.012Z,6.15
2023-03-06T20:37:50.314Z,6.15
2023-03-06T20:40:22.692Z,6.15
2023-03-06T20:42:55.094Z,6.16
2023-03-06T20:45:27.398Z,6.17
2023-03-06T20:47:59.739Z,6.20
2023-03-06T20:50:32.129Z,6.23
2023-03-06T20:53:04.351Z,6.26
2023-03-06T20:55:38.722Z,6.28
2023-03-06T20:58:11.116Z,6.29
2023-03-06T21:00:43.560Z,6.31
2023-03-06T21:03:16.662Z,6.33
2023-03-06T21:05:50.257Z,6.36
2023-03-06T21:08:22.495Z,6.38
2023-03-06T21:10:55.173Z,6.42
2023-03-06T21:13:27.614Z,6.45
2023-03-06T21:15:59.929Z,6.48
2023-03-06T21:18:32.322Z,6.52
2023-03-06T21:21:08.447Z,6.55
2023-03-06T21:23:41.188Z,6.58
2023-03-06T21:26:16.530Z,6.61
2023-03-06T21:28:49.189Z,6.65
2023-03-06T21:31:23.017Z,6.68
2023-03-06T21:33:55.703Z,6.70
2023-03-06T21:36:28.356Z,6.72
2023-03-06T21:39:00.768Z,6.73
2023-03-06T21:41:33.416Z,6.73
2023-03-06T21:44:07.251Z,6.73
2023-03-06T21:46:39.577Z,6.76
2023-03-06T21:49:11.862Z,6.80
2023-03-06T21:51:44.221Z,6.82
2023-03-06T21:54:16.493Z,6.83
2023-03-06T21:56:49.081Z,6.83
2023-03-06T21:59:21.588Z,6.85
2023-03-06T22:01:54.053Z,6.87
2023-03-06T22:04:26.475Z,6.89
2023-03-06T22:06:58.851Z,6.86
2023-03-06T22:09:31.291Z,6.86
2023-03-06T22:12:03.825Z,6.87
2023-03-06T22:14:36.135Z,6.89
2023-03-06T22:17:08.616Z,6.91
2023-03-06T22:19:40.930Z,6.90
2023-03-06T22:22:13.317Z,6.90
2023-03-06T22:24:45.877Z,6.90
2023-03-06T22:27:18.447Z,6.90
2023-03-06T22:29:50.771Z,6.90
2023-03-06T22:32:23.268Z,6.90
2023-03-06T22:34:55.549Z,6.90
2023-03-06T22:37:27.906Z,6.91
2023-03-06T22:40:00.183Z,6.90
2023-03-06T22:42:32.617Z,6.90
2023-03-06T22:45:05.355Z,6.89
2023-03-06T22:47:40.544Z,6.90
2023-03-06T22:50:14.719Z,6.85
2023-03-06T22:52:47.111Z,6.83
2023-03-06T22:55:19.592Z,6.79
2023-03-06T22:57:51.988Z,6.74
2023-03-06T23:00:25.642Z,6.73
2023-03-06T23:02:58.000Z,6.74
2023-03-06T23:05:30.517Z,6.78
2023-03-06T23:08:02.787Z,6.81
2023-03-06T23:10:39.615Z,6.82
2023-03-06T23:13:11.942Z,6.84
2023-03-06T23:15:44.424Z,6.85
2023-03-06T23:18:17.319Z,6.86
2023-03-06T23:20:49.676Z,6.85
2023-03-06T23:23:22.823Z,6.81
2023-03-06T23:25:59.500Z,6.76
2023-03-06T23:28:32.159Z,6.80
2023-03-06T23:31:09.488Z,6.84
2023-03-06T23:33:42.719Z,6.88
2023-03-06T23:36:17.398Z,6.91
2023-03-06T23:38:49.864Z,6.91
2023-03-06T23:41:24.033Z,6.92
2023-03-06T23:43:56.345Z,6.89
2023-03-06T23:46:28.777Z,6.91
2023-03-06T23:49:01.266Z,6.87
2023-03-06T23:51:33.676Z,6.84
2023-03-06T23:54:07.484Z,6.81
2023-03-06T23:56:40.619Z,6.79
2023-03-06T23:59:14.216Z,6.79
